Time,TemperatureF,DewpointF,PressureIn,WindDirection,WindDirectionDegrees,WindSpeedMPH,WindSpeedGustMPH,Humidity,HourlyPrecipIn,Conditions,Clouds,dailyrainin,SoftwareType,DateUTC
2013-03-05 00:19:00,43.3,42.0,29.63,WSW,240,0.0,-999.0,95,-99.99,,,0.00,weatherlink.com 1.10,2013-03-05 08:19:00,
2013-03-05 00:34:00,42.1,40.0,29.63,West,269,0.0,-999.0,93,-99.99,,,0.00,weatherlink.com 1.10,2013-03-05 08:34:00,
2013-03-05 00:49:00,39.3,38.0,29.62,WSW,239,0.0,-999.0,93,-99.99,,,0.00,weatherlink.com 1.10,2013-03-05 08:49:00,
2013-03-05 01:04:00,38.6,37.0,29.62,SW,217,0.0,-999.0,94,-99.99,,,0.00,weatherlink.com 1.10,2013-03-05 09:04:00,
2013-03-05 01:19:00,38.9,38.0,29.62,SSW,202,0.0,-999.0,95,-99.99,,,0.00,weatherlink.com 1.10,2013-03-05 09:19:00,
2013-03-05 01:34:00,39.5,38.0,29.62,SSW,205,0.0,-999.0,95,-99.99,,,0.00,weatherlink.com 1.10,2013-03-05 09:34:00,
2013-03-05 01:49:00,38.2,36.0,29.61,SSW,209,0.0,-999.0,93,-99.99,,,0.00,weatherlink.com 1.10,2013-03-05 09:49:00,
2013-03-05 02:04:00,37.5,36.0,29.61,SW,216,0.0,-999.0,94,-99.99,,,0.00,weatherlink.com 1.10,2013-03-05 10:04:00,
2013-03-05 02:19:00,37.8,37.0,29.61,WNW,300,3.0,-999.0,95,-99.99,,,0.00,weatherlink.com 1.10,2013-03-05 10:19:00,
2013-03-05 02:34:00,38.5,37.0,29.61,NW,307,4.0,-999.0,95,-99.99,,,0.00,weatherlink.com 1.10,2013-03-05 10:34:00,
2013-03-05 02:49:00,39.3,38.0,29.62,NW,312,0.0,-999.0,96,-99.99,,,0.00,weatherlink.com 1.10,2013-03-05 10:49:00,
2013-03-05 03:19:00,39.5,38.0,29.61,East,82,0.0,-999.0,95,-99.99,,,0.00,weatherlink.com 1.10,2013-03-05 11:19:00,
2013-03-05 03:34:00,39.3,38.0,29.62,NE,40,0.0,-999.0,95,-99.99,,,0.00,weatherlink.com 1.10,2013-03-05 11:34:00,
2013-03-05 03:49:00,39.3,38.0,29.63,North,10,0.0,-999.0,95,-99.99,,,0.00,weatherlink.com 1.10,2013-03-05 11:49:00,
2013-03-05 04:04:00,39.7,39.0,29.63,North,349,0.0,-999.0,96,-99.99,,,0.00,weatherlink.com 1.10,2013-03-05 12:04:00,
2013-03-05 04:19:00,39.4,38.0,29.63,NNW,337,0.0,-999.0,96,-99.99,,,0.00,weatherlink.com 1.10,2013-03-05 12:19:00,
2013-03-05 04:34:00,39.7,39.0,29.63,NW,309,0.0,-999.0,96,-99.99,,,0.00,weatherlink.com 1.10,2013-03-05 12:34:00,
2013-03-05 04:49:00,39.8,39.0,29.63,NNW,329,0.0,-999.0,96,-99.99,,,0.00,weatherlink.com 1.10,2013-03-05 12:49:00,
2013-03-05 05:04:00,39.8,39.0,29.64,NNW,341,0.0,-999.0,96,-99.99,,,0.00,weatherlink.com 1.10,2013-03-05 13:04:00,
2013-03-05 05:19:00,39.8,39.0,29.63,NW,306,0.0,-999.0,96,-99.99,,,0.00,weatherlink.com 1.10,2013-03-05 13:19:00,
2013-03-05 05:34:00,39.7,39.0,29.64,NW,308,0.0,-999.0,96,-99.99,,,0.00,weatherlink.com 1.10,2013-03-05 13:34:00,
2013-03-05 05:49:00,39.7,39.0,29.64,NW,308,0.0,-999.0,96,-99.99,,,0.00,weatherlink.com 1.10,2013-03-05 13:49:00,
2013-03-05 06:04:00,39.8,39.0,29.63,SSE,164,0.0,-999.0,96,-99.99,,,0.00,weatherlink.com 1.10,2013-03-05 14:04:00,
2013-03-05 06:19:00,39.3,38.0,29.62,SSW,194,7.0,-999.0,96,-99.99,,,0.00,weatherlink.com 1.10,2013-03-05 14:19:00,
2013-03-05 06:34:00,38.9,38.0,29.62,SSE,156,5.0,-999.0,96,-99.99,,,0.00,weatherlink.com 1.10,2013-03-05 14:34:00,
2013-03-05 06:49:00,38.8,38.0,29.62,North,350,0.0,-999.0,96,-99.99,,,0.00,weatherlink.com 1.10,2013-03-05 14:49:00,
2013-03-05 07:03:00,38.9,38.0,29.62,SSW,204,0.0,-999.0,96,-99.99,,,0.00,weatherlink.com 1.10,2013-03-05 15:03:00,
2013-03-05 07:19:00,39.1,38.0,29.62,SSE,152,0.0,-999.0,96,-99.99,,,0.00,weatherlink.com 1.10,2013-03-05 15:19:00,
2013-03-05 07:34:00,39.3,38.0,29.63,NNW,348,0.0,-999.0,96,-99.99,,,0.00,weatherlink.com 1.10,2013-03-05 15:34:00,
2013-03-05 07:49:00,39.0,38.0,29.63,West,265,0.0,-999.0,96,-99.99,,,0.00,weatherlink.com 1.10,2013-03-05 15:49:00,
2013-03-05 08:04:00,39.4,38.0,29.64,NNW,340,0.0,-999.0,96,-99.99,,,0.00,weatherlink.com 1.10,2013-03-05 16:04:00,
2013-03-05 08:19:00,39.5,39.0,29.64,ESE,103,0.0,-999.0,96,-99.99,,,0.00,weatherlink.com 1.10,2013-03-05 16:19:00,
2013-03-05 08:34:00,39.8,39.0,29.64,North,360,0.0,-999.0,96,-99.99,,,0.01,weatherlink.com 1.10,2013-03-05 16:34:00,
2013-03-05 08:49:00,40.6,40.0,29.64,NNW,331,0.0,-999.0,97,-99.99,,,0.01,weatherlink.com 1.10,2013-03-05 16:49:00,
2013-03-05 09:04:00,41.1,40.0,29.64,NNW,348,0.0,-999.0,97,-99.99,,,0.01,weatherlink.com 1.10,2013-03-05 17:04:00,
2013-03-05 09:19:00,40.9,40.0,29.64,ENE,78,0.0,-999.0,96,-99.99,,,0.01,weatherlink.com 1.10,2013-03-05 17:19:00,
2013-03-05 09:34:00,41.8,41.0,29.63,ENE,63,0.0,-999.0,97,-99.99,,,0.01,weatherlink.com 1.10,2013-03-05 17:34:00,
2013-03-05 09:49:00,44.2,43.0,29.62,NNE,18,0.0,-999.0,97,-99.99,,,0.01,weatherlink.com 1.10,2013-03-05 17:49:00,
2013-03-05 10:04:00,44.0,43.0,29.62,NE,56,0.0,-999.0,97,-99.99,,,0.01,weatherlink.com 1.10,2013-03-05 18:04:00,
2013-03-05 10:19:00,45.0,44.0,29.62,North,10,0.0,-999.0,96,-99.99,,,0.01,weatherlink.com 1.10,2013-03-05 18:19:00,
2013-03-05 10:34:00,46.3,44.0,29.62,NNE,14,0.0,-999.0,91,-99.99,,,0.01,weatherlink.com 1.10,2013-03-05 18:34:00,
2013-03-05 10:49:00,47.8,44.0,29.61,NE,36,4.0,-999.0,86,-99.99,,,0.01,weatherlink.com 1.10,2013-03-05 18:49:00,
2013-03-05 11:03:00,49.4,44.0,29.61,NNW,337,0.0,-999.0,82,-99.99,,,0.01,weatherlink.com 1.10,2013-03-05 19:03:00,
2013-03-05 11:19:00,51.3,45.0,29.61,North,5,0.0,-999.0,78,-99.99,,,0.01,weatherlink.com 1.10,2013-03-05 19:19:00,
2013-03-05 11:34:00,51.8,43.0,29.60,NE,42,3.0,-999.0,73,-99.99,,,0.01,weatherlink.com 1.10,2013-03-05 19:34:00,
2013-03-05 11:49:00,51.4,42.0,29.60,North,355,0.0,-999.0,71,-99.99,,,0.01,weatherlink.com 1.10,2013-03-05 19:49:00,
2013-03-05 12:04:00,52.7,44.0,29.60,NNE,18,6.0,-999.0,71,-99.99,,,0.01,weatherlink.com 1.10,2013-03-05 20:04:00,
2013-03-05 12:19:00,51.8,43.0,29.59,North,11,7.0,-999.0,71,-99.99,,,0.01,weatherlink.com 1.10,2013-03-05 20:19:00,
2013-03-05 12:34:00,51.4,43.0,29.59,NNE,28,9.0,-999.0,73,-99.99,,,0.01,weatherlink.com 1.10,2013-03-05 20:34:00,
2013-03-05 12:49:00,51.3,43.0,29.57,NE,42,8.0,-999.0,73,-99.99,,,0.01,weatherlink.com 1.10,2013-03-05 20:49:00,
2013-03-05 13:04:00,51.3,43.0,29.57,North,355,2.0,-999.0,72,-99.99,,,0.01,weatherlink.com 1.10,2013-03-05 21:04:00,
2013-03-05 13:19:00,51.4,42.0,29.56,NE,46,5.0,-999.0,71,-99.99,,,0.01,weatherlink.com 1.10,2013-03-05 21:19:00,
2013-03-05 13:34:00,51.8,43.0,29.55,NNE,31,5.0,-999.0,71,-99.99,,,0.01,weatherlink.com 1.10,2013-03-05 21:34:00,
2013-03-05 13:49:00,51.9,43.0,29.55,NNE,23,6.0,-999.0,71,-99.99,,,0.01,weatherlink.com 1.10,2013-03-05 21:49:00,
2013-03-05 14:04:00,52.7,43.0,29.55,NE,34,6.0,-999.0,69,-99.99,,,0.01,weatherlink.com 1.10,2013-03-05 22:04:00,
2013-03-05 14:19:00,52.8,43.0,29.54,NNE,15,10.0,-999.0,70,-99.99,,,0.01,weatherlink.com 1.10,2013-03-05 22:19:00,
2013-03-05 14:34:00,52.6,43.0,29.54,NE,46,2.0,-999.0,69,-99.99,,,0.01,weatherlink.com 1.10,2013-03-05 22:34:00,
2013-03-05 14:49:00,53.0,43.0,29.53,ENE,75,4.0,-999.0,70,-99.99,,,0.01,weatherlink.com 1.10,2013-03-05 22:49:00,
2013-03-05 15:03:00,53.5,43.0,29.53,NNE,24,3.0,-999.0,67,-99.99,,,0.01,weatherlink.com 1.10,2013-03-05 23:03:00,
2013-03-05 15:19:00,53.2,43.0,29.53,NE,49,1.0,-999.0,68,-99.99,,,0.01,weatherlink.com 1.10,2013-03-05 23:19:00,
2013-03-05 15:34:00,52.7,43.0,29.53,NE,50,0.0,-999.0,69,-99.99,,,0.01,weatherlink.com 1.10,2013-03-05 23:34:00,
2013-03-05 15:49:00,53.0,43.0,29.53,NNE,24,2.0,-999.0,69,-99.99,,,0.01,weatherlink.com 1.10,2013-03-05 23:49:00,
2013-03-05 16:04:00,53.3,43.0,29.53,NE,34,0.0,-999.0,68,-99.99,,,0.01,weatherlink.com 1.10,2013-03-06 00:04:00,
2013-03-05 16:19:00,52.8,43.0,29.52,ENE,71,0.0,-999.0,69,-99.99,,,0.01,weatherlink.com 1.10,2013-03-06 00:19:00,
2013-03-05 16:34:00,52.4,39.0,29.52,SSE,165,0.0,-999.0,61,-99.99,,,0.01,weatherlink.com 1.10,2013-03-06 00:34:00,
2013-03-05 16:49:00,52.8,42.0,29.52,West,280,0.0,-999.0,68,-99.99,,,0.01,weatherlink.com 1.10,2013-03-06 00:49:00,
2013-03-05 17:04:00,52.4,38.0,29.52,West,277,6.0,-999.0,59,-99.99,,,0.01,weatherlink.com 1.10,2013-03-06 01:04:00,
2013-03-05 17:19:00,51.2,33.0,29.51,SSW,203,10.0,-999.0,50,-99.99,,,0.01,weatherlink.com 1.10,2013-03-06 01:19:00,
2013-03-05 17:34:00,49.2,30.0,29.51,SW,230,7.0,-999.0,48,-99.99,,,0.01,weatherlink.com 1.10,2013-03-06 01:34:00,
2013-03-05 17:49:00,47.8,30.0,29.51,SW,217,11.0,-999.0,50,-99.99,,,0.01,weatherlink.com 1.10,2013-03-06 01:49:00,
2013-03-05 18:04:00,47.1,30.0,29.50,SW,215,16.0,-999.0,52,-99.99,,,0.00,weatherlink.com 1.10,2013-03-06 02:04:00,
2013-03-05 18:19:00,47.1,29.0,29.50,SW,223,11.0,-999.0,50,-99.99,,,0.00,weatherlink.com 1.10,2013-03-06 02:19:00,
2013-03-05 18:34:00,46.9,29.0,29.52,West,269,11.0,-999.0,51,-99.99,,,0.00,weatherlink.com 1.10,2013-03-06 02:34:00,
2013-03-05 18:49:00,46.4,30.0,29.51,SSW,194,9.0,-999.0,54,-99.99,,,0.00,weatherlink.com 1.10,2013-03-06 02:49:00,
2013-03-05 19:04:00,46.2,30.0,29.51,South,181,17.0,-999.0,54,-99.99,,,0.00,weatherlink.com 1.10,2013-03-06 03:04:00,
2013-03-05 19:19:00,46.6,30.0,29.51,South,179,9.0,-999.0,53,-99.99,,,0.00,weatherlink.com 1.10,2013-03-06 03:19:00,
2013-03-05 19:34:00,46.0,31.0,29.50,South,173,12.0,-999.0,57,-99.99,,,0.00,weatherlink.com 1.10,2013-03-06 03:34:00,
2013-03-05 19:49:00,45.1,32.0,29.50,SSE,160,9.0,-999.0,61,-99.99,,,0.00,weatherlink.com 1.10,2013-03-06 03:49:00,
2013-03-05 20:04:00,45.0,33.0,29.51,SW,219,16.0,-999.0,62,-99.99,,,0.00,weatherlink.com 1.10,2013-03-06 04:04:00,
2013-03-05 20:19:00,44.4,34.0,29.50,SSW,192,12.0,-999.0,67,-99.99,,,0.00,weatherlink.com 1.10,2013-03-06 04:19:00,
2013-03-05 20:34:00,44.0,34.0,29.50,South,172,13.0,-999.0,69,-99.99,,,0.00,weatherlink.com 1.10,2013-03-06 04:34:00,
2013-03-05 20:49:00,44.2,34.0,29.50,SSE,159,4.0,-999.0,68,-99.99,,,0.00,weatherlink.com 1.10,2013-03-06 04:49:00,
2013-03-05 21:04:00,44.7,35.0,29.50,South,175,13.0,-999.0,68,-99.99,,,0.00,weatherlink.com 1.10,2013-03-06 05:04:00,
2013-03-05 21:19:00,44.9,35.0,29.50,South,182,4.0,-999.0,68,-99.99,,,0.00,weatherlink.com 1.10,2013-03-06 05:19:00,
2013-03-05 21:34:00,44.7,35.0,29.50,South,190,5.0,-999.0,69,-99.99,,,0.00,weatherlink.com 1.10,2013-03-06 05:34:00,
2013-03-05 21:49:00,45.0,36.0,29.50,SSW,210,17.0,-999.0,71,-99.99,,,0.00,weatherlink.com 1.10,2013-03-06 05:49:00,
2013-03-05 22:04:00,44.2,37.0,29.50,WSW,242,9.0,-999.0,75,-99.99,,,0.00,weatherlink.com 1.10,2013-03-06 06:04:00,
2013-03-05 22:19:00,44.6,37.0,29.50,WSW,238,12.0,-999.0,75,-99.99,,,0.00,weatherlink.com 1.10,2013-03-06 06:19:00,
2013-03-05 22:34:00,44.9,37.0,29.49,South,187,14.0,-999.0,75,-99.99,,,0.00,weatherlink.com 1.10,2013-03-06 06:34:00,
2013-03-05 22:49:00,45.2,38.0,29.49,South,189,23.0,-999.0,76,-99.99,,,0.00,weatherlink.com 1.10,2013-03-06 06:49:00,
2013-03-05 23:03:00,45.1,40.0,29.51,WSW,238,13.0,-999.0,81,-99.99,,,0.00,weatherlink.com 1.10,2013-03-06 07:03:00,
2013-03-05 23:19:00,44.2,41.0,29.48,SSW,205,14.0,-999.0,87,-99.99,,,0.02,weatherlink.com 1.10,2013-03-06 07:19:00,
2013-03-05 23:34:00,44.4,41.0,29.48,SSW,205,20.0,-999.0,87,-99.99,,,0.02,weatherlink.com 1.10,2013-03-06 07:34:00,
2013-03-05 23:49:00,44.7,41.0,29.48,SSW,194,20.0,-999.0,86,-99.99,,,0.02,weatherlink.com 1.10,2013-03-06 07:49:00,